createdAt,value
2019-05-01T00:03:49.973Z,58
2019-05-01T00:13:53.308Z,57
2019-05-01T00:23:56.621Z,58
2019-05-01T00:33:59.939Z,57
2019-05-01T00:44:03.287Z,57
2019-05-01T00:54:06.616Z,57
2019-05-01T01:04:09.935Z,57
2019-05-01T01:14:13.273Z,56
2019-05-01T01:24:16.608Z,56
2019-05-01T01:34:19.945Z,56
2019-05-01T01:44:23.272Z,56
2019-05-01T01:54:26.623Z,55
2019-05-01T02:04:29.953Z,55
2019-05-01T02:14:33.291Z,55
2019-05-01T02:24:36.626Z,55
2019-05-01T02:34:39.967Z,54
2019-05-01T02:44:43.314Z,54
2019-05-01T02:54:46.689Z,54
2019-05-01T03:04:50.023Z,54
2019-05-01T03:14:53.362Z,54
2019-05-01T03:24:56.683Z,54
2019-05-01T03:35:00.064Z,54
2019-05-01T03:45:03.425Z,53
2019-05-01T03:55:06.792Z,53
2019-05-01T04:05:10.215Z,53
2019-05-01T04:15:13.599Z,53
2019-05-01T04:25:16.937Z,53
2019-05-01T04:35:20.317Z,53
2019-05-01T04:45:23.670Z,53
2019-05-01T04:55:27.016Z,52
2019-05-01T05:05:30.355Z,52
2019-05-01T05:15:33.686Z,52
2019-05-01T05:25:37.015Z,52
2019-05-01T05:35:40.354Z,52
2019-05-01T05:45:43.688Z,53
2019-05-01T05:55:47.009Z,52
2019-05-01T06:05:50.345Z,52
2019-05-01T06:15:53.686Z,52
2019-05-01T06:26:02.774Z,52
2019-05-01T06:36:14.338Z,52
2019-05-01T06:46:29.108Z,52
2019-05-01T06:56:32.560Z,52
2019-05-01T07:06:36.378Z,52
2019-05-01T07:16:39.703Z,52
2019-05-01T07:26:49.190Z,51
2019-05-01T07:36:52.614Z,52
2019-05-01T07:46:56.444Z,52
2019-05-01T07:57:05.011Z,52
2019-05-01T08:07:08.356Z,52
2019-05-01T08:17:19.810Z,52
2019-05-01T08:27:23.291Z,52
2019-05-01T08:37:27.423Z,52
2019-05-01T08:47:30.766Z,51
2019-05-01T08:57:39.820Z,51
2019-05-01T09:07:43.372Z,51
2019-05-01T09:17:46.770Z,51
2019-05-01T09:27:50.091Z,51
2019-05-01T09:37:53.453Z,52
2019-05-01T09:47:56.775Z,51
2019-05-01T09:58:03.137Z,52
2019-05-01T10:08:06.462Z,52
2019-05-01T10:18:09.792Z,52
2019-05-01T10:28:17.903Z,52
2019-05-01T10:38:21.230Z,53
2019-05-01T10:48:24.579Z,52
2019-05-01T10:58:27.916Z,51
2019-05-01T11:08:31.239Z,53
2019-05-01T11:18:34.572Z,52
2019-05-01T11:28:37.908Z,53
2019-05-01T11:38:41.229Z,54
2019-05-01T11:48:44.918Z,53
2019-05-01T11:58:48.242Z,53
2019-05-01T12:08:51.560Z,53
2019-05-01T12:18:54.891Z,52
2019-05-01T12:28:58.237Z,53
2019-05-01T12:39:01.549Z,53
2019-05-01T12:49:04.883Z,52
2019-05-01T12:59:08.211Z,52
2019-05-01T13:09:11.514Z,53
2019-05-01T13:19:14.841Z,53
2019-05-01T13:29:18.167Z,53
2019-05-01T13:39:21.505Z,53
2019-05-01T13:49:24.865Z,53
2019-05-01T13:59:28.234Z,53
2019-05-01T14:09:31.559Z,54
2019-05-01T14:19:34.894Z,53
2019-05-01T14:29:38.468Z,54
2019-05-01T14:39:42.153Z,54
2019-05-01T14:49:45.956Z,54
2019-05-01T14:59:49.649Z,52
2019-05-01T15:09:53.285Z,54
2019-05-01T15:19:56.949Z,55
2019-05-01T15:30:00.631Z,55
2019-05-01T15:40:04.310Z,54
2019-05-01T15:50:08.082Z,55
2019-05-01T16:00:11.774Z,55
2019-05-01T16:10:15.447Z,53
2019-05-01T16:20:19.153Z,55
2019-05-01T16:30:22.614Z,56
2019-05-01T16:40:25.955Z,55
2019-05-01T16:50:29.287Z,53
2019-05-01T17:00:32.617Z,54
2019-05-01T17:10:35.983Z,54
2019-05-01T17:20:39.324Z,55
2019-05-01T17:30:42.634Z,54
2019-05-01T17:40:53.545Z,54
2019-05-01T17:51:02.088Z,56
2019-05-01T18:01:05.410Z,55
2019-05-01T18:11:15.790Z,57
2019-05-01T18:21:19.222Z,56
2019-05-01T18:31:22.559Z,55
2019-05-01T18:41:25.879Z,56
2019-05-01T18:51:29.217Z,56
2019-05-01T19:01:32.536Z,56
2019-05-01T19:11:36.200Z,56
2019-05-01T19:21:48.310Z,56
2019-05-01T19:31:51.834Z,55
2019-05-01T19:41:55.260Z,56
2019-05-01T19:52:02.275Z,55
2019-05-01T20:02:05.720Z,55
2019-05-01T20:12:09.044Z,55
2019-05-01T20:22:12.361Z,55
2019-05-01T20:32:15.688Z,55
2019-05-01T20:42:19.030Z,55
2019-05-01T20:52:22.343Z,55
2019-05-01T21:02:25.682Z,55
2019-05-01T21:12:29.024Z,54
2019-05-01T21:22:33.590Z,55
2019-05-01T21:32:36.938Z,54
2019-05-01T21:42:40.266Z,54
2019-05-01T21:52:44.000Z,54
2019-05-01T22:02:47.823Z,54
2019-05-01T22:12:51.160Z,54
2019-05-01T22:22:54.509Z,53
2019-05-01T22:32:57.844Z,54
2019-05-01T22:43:01.178Z,53
2019-05-01T22:53:14.345Z,54
2019-05-01T23:03:17.742Z,53
2019-05-01T23:13:21.067Z,53
2019-05-01T23:23:24.401Z,53
2019-05-01T23:33:27.731Z,53
2019-05-01T23:43:31.063Z,53
2019-05-01T23:53:34.465Z,52
